createdAt,value
2019-02-25T00:05:02.434Z,15.45
2019-02-25T00:11:06.826Z,15.20
2019-02-25T00:17:11.119Z,15.60
2019-02-25T00:23:15.348Z,15.55
2019-02-25T00:29:19.598Z,16.17
2019-02-25T00:35:23.998Z,17.05
2019-02-25T00:41:28.213Z,16.50
2019-02-25T00:47:32.523Z,17.10
2019-02-25T00:53:36.731Z,16.93
2019-02-25T00:59:41.240Z,16.20
2019-02-25T01:05:45.519Z,15.83
2019-02-25T01:11:49.728Z,16.65
2019-02-25T01:17:53.991Z,16.55
2019-02-25T01:23:58.191Z,17.57
2019-02-25T01:30:02.367Z,17.60
2019-02-25T01:36:06.908Z,17.23
2019-02-25T01:42:11.161Z,17.42
2019-02-25T01:48:15.363Z,17.90
2019-02-25T01:54:19.634Z,17.98
2019-02-25T02:00:23.890Z,17.07
2019-02-25T02:06:28.109Z,16.57
2019-02-25T02:12:32.543Z,16.55
2019-02-25T02:18:36.821Z,15.90
2019-02-25T02:24:41.136Z,16.20
2019-02-25T02:30:45.368Z,16.17
2019-02-25T02:36:49.656Z,15.95
2019-02-25T02:42:55.425Z,16.03
2019-02-25T02:49:02.964Z,16.35
2019-02-25T02:55:07.855Z,14.87
2019-02-25T03:01:12.208Z,15.43
2019-02-25T03:07:16.399Z,16.40
2019-02-25T03:13:20.602Z,16.35
2019-02-25T03:19:24.885Z,16.27
2019-02-25T03:25:29.174Z,16.73
2019-02-25T03:31:33.452Z,16.27
2019-02-25T03:37:37.747Z,15.47
2019-02-25T03:43:41.981Z,16.00
2019-02-25T03:49:46.168Z,16.13
2019-02-25T03:55:50.553Z,16.00
2019-02-25T04:01:55.045Z,17.77
2019-02-25T04:07:59.316Z,37.10
2019-02-25T04:14:03.752Z,19.33
2019-02-25T04:20:10.101Z,17.17
2019-02-25T04:26:14.390Z,16.60
2019-02-25T04:32:18.771Z,18.67
2019-02-25T04:38:22.995Z,21.33
2019-02-25T04:44:27.302Z,19.43
2019-02-25T04:50:31.532Z,19.07
2019-02-25T04:56:35.743Z,18.93
2019-02-25T05:02:40.046Z,19.20
2019-02-25T05:08:44.323Z,18.57
2019-02-25T05:14:48.672Z,18.53
2019-02-25T05:20:53.022Z,17.67
2019-02-25T05:26:57.310Z,17.03
2019-02-25T05:33:01.522Z,17.23
2019-02-25T05:39:07.281Z,17.37
2019-02-25T05:45:12.074Z,18.33
2019-02-25T05:51:16.296Z,21.33
2019-02-25T05:57:20.847Z,19.23
2019-02-25T06:03:25.050Z,31.57
2019-02-25T06:09:29.550Z,44.63
2019-02-25T06:15:33.750Z,36.33
2019-02-25T06:21:38.025Z,24.60
2019-02-25T06:27:42.471Z,25.37
2019-02-25T06:33:47.566Z,23.70
2019-02-25T06:39:52.025Z,27.07
2019-02-25T06:45:56.471Z,27.60
2019-02-25T06:52:00.867Z,26.47
2019-02-25T06:58:05.084Z,21.23
2019-02-25T07:04:23.948Z,21.83
2019-02-25T07:10:45.852Z,23.50
2019-02-25T07:17:09.165Z,22.37
2019-02-25T07:23:29.022Z,22.00
2019-02-25T07:29:44.731Z,22.30
2019-02-25T07:36:02.401Z,21.20
2019-02-25T07:42:28.534Z,20.20
2019-02-25T07:48:57.696Z,20.00
2019-02-25T07:55:15.750Z,21.20
2019-02-25T08:01:37.410Z,22.57
2019-02-25T08:07:59.100Z,22.93
2019-02-25T08:14:14.946Z,21.97
2019-02-25T08:20:47.014Z,21.57
2019-02-25T08:27:10.292Z,22.20
2019-02-25T08:33:22.203Z,22.10
2019-02-25T08:39:34.429Z,21.95
2019-02-25T08:45:44.160Z,23.50
2019-02-25T08:51:48.442Z,23.85
2019-02-25T08:57:52.784Z,26.20
2019-02-25T09:03:57.068Z,29.48
2019-02-25T09:10:01.291Z,33.05
2019-02-25T09:16:05.499Z,27.07
2019-02-25T09:22:09.728Z,24.20
2019-02-25T09:28:13.959Z,26.82
2019-02-25T09:34:18.240Z,25.95
2019-02-25T09:40:22.505Z,25.72
2019-02-25T09:46:27.010Z,25.27
2019-02-25T09:52:31.247Z,23.95
2019-02-25T09:58:35.513Z,25.08
2019-02-25T10:04:39.781Z,25.15
2019-02-25T10:10:44.011Z,24.40
2019-02-25T10:16:48.247Z,29.60
2019-02-25T10:22:52.524Z,22.37
2019-02-25T10:28:56.790Z,25.35
2019-02-25T10:35:01.098Z,25.50
2019-02-25T10:41:05.394Z,25.17
2019-02-25T10:47:10.929Z,23.73
2019-02-25T10:53:16.334Z,22.42
2019-02-25T10:59:21.619Z,23.15
2019-02-25T11:05:27.844Z,22.73
2019-02-25T11:11:34.729Z,23.32
2019-02-25T11:17:38.986Z,22.30
2019-02-25T11:23:45.059Z,21.65
2019-02-25T11:29:49.144Z,19.27
2019-02-25T11:35:53.578Z,18.73
2019-02-25T11:41:57.758Z,17.25
2019-02-25T11:48:02.144Z,16.77
2019-02-25T11:54:06.396Z,15.45
2019-02-25T12:00:15.862Z,15.35
2019-02-25T12:06:20.356Z,17.55
2019-02-25T12:12:24.557Z,16.60
2019-02-25T12:18:28.848Z,12.35
2019-02-25T12:24:33.078Z,11.57
2019-02-25T12:30:37.497Z,10.28
2019-02-25T12:36:41.766Z,11.40
2019-02-25T12:42:46.153Z,10.10
2019-02-25T12:48:50.465Z,10.65
2019-02-25T12:54:54.748Z,10.72
2019-02-25T13:00:58.942Z,11.50
2019-02-25T13:07:03.307Z,9.88
2019-02-25T13:13:07.547Z,11.30
2019-02-25T13:19:11.758Z,11.63
2019-02-25T13:25:16.009Z,11.97
2019-02-25T13:31:20.246Z,12.10
2019-02-25T13:37:24.897Z,9.25
2019-02-25T13:43:29.174Z,10.72
2019-02-25T13:49:33.541Z,8.98
2019-02-25T13:55:37.829Z,12.03
2019-02-25T14:01:42.185Z,12.95
2019-02-25T14:07:46.455Z,11.20
2019-02-25T14:13:50.761Z,12.25
2019-02-25T14:19:55.114Z,11.40
2019-02-25T14:25:59.423Z,12.53
2019-02-25T14:32:04.020Z,10.80
2019-02-25T14:38:10.869Z,12.63
2019-02-25T14:44:15.147Z,11.68
2019-02-25T14:50:19.730Z,9.85
2019-02-25T14:56:24.078Z,9.60
2019-02-25T15:02:28.573Z,9.10
2019-02-25T15:08:32.863Z,10.60
2019-02-25T15:14:37.289Z,9.85
2019-02-25T15:20:41.694Z,8.40
2019-02-25T15:26:45.979Z,9.20
2019-02-25T15:32:55.662Z,9.65
2019-02-25T15:38:56.467Z,10.08
2019-02-25T15:45:00.816Z,8.80
2019-02-25T15:51:05.456Z,8.43
2019-02-25T15:57:09.708Z,8.05
2019-02-25T16:03:15.926Z,7.87
2019-02-25T16:09:23.444Z,7.28
2019-02-25T16:15:26.562Z,8.03
2019-02-25T16:21:31.726Z,7.35
2019-02-25T16:27:35.966Z,7.78
2019-02-25T16:33:40.224Z,12.18
2019-02-25T16:39:44.508Z,17.23
2019-02-25T16:45:48.792Z,12.28
2019-02-25T16:51:53.842Z,20.92
2019-02-25T16:58:01.128Z,20.32
2019-02-25T17:04:05.305Z,20.55
2019-02-25T17:10:11.955Z,20.88
2019-02-25T17:16:18.513Z,21.33
2019-02-25T17:22:22.276Z,22.05
2019-02-25T17:28:27.389Z,22.60
2019-02-25T17:34:32.241Z,22.90
2019-02-25T17:40:37.318Z,23.00
2019-02-25T17:46:43.019Z,23.70
2019-02-25T17:52:47.931Z,23.40
2019-02-25T17:58:53.226Z,25.35
2019-02-25T18:04:57.936Z,24.82
2019-02-25T18:11:02.458Z,22.60
2019-02-25T18:17:08.335Z,23.07
2019-02-25T18:23:12.907Z,23.92
2019-02-25T18:29:18.536Z,22.10
2019-02-25T18:35:23.313Z,23.85
2019-02-25T18:41:31.386Z,28.98
2019-02-25T18:47:33.742Z,19.12
2019-02-25T18:53:38.230Z,20.10
2019-02-25T18:59:43.837Z,19.82
2019-02-25T19:05:49.001Z,18.57
2019-02-25T19:11:56.201Z,21.15
2019-02-25T19:18:00.334Z,20.60
2019-02-25T19:24:05.815Z,18.37
2019-02-25T19:30:11.489Z,19.48
2019-02-25T19:36:15.912Z,18.62
2019-02-25T19:42:22.433Z,18.23
2019-02-25T19:48:29.018Z,19.23
2019-02-25T19:54:36.270Z,20.43
2019-02-25T20:00:38.495Z,23.32
2019-02-25T20:06:44.790Z,24.85
2019-02-25T20:12:50.915Z,19.62
2019-02-25T20:18:55.962Z,20.00
2019-02-25T20:25:01.093Z,20.00
2019-02-25T20:31:06.160Z,19.95
2019-02-25T20:37:11.552Z,20.23
2019-02-25T20:43:19.338Z,19.40
2019-02-25T20:49:22.761Z,20.02
2019-02-25T20:55:29.369Z,25.68
2019-02-25T21:01:37.186Z,21.30
2019-02-25T21:07:40.337Z,22.82
2019-02-25T21:13:44.820Z,19.67
2019-02-25T21:19:49.131Z,19.82
2019-02-25T21:25:55.725Z,20.77
2019-02-25T21:31:59.399Z,19.67
2019-02-25T21:38:03.877Z,21.15
2019-02-25T21:44:08.118Z,20.17
2019-02-25T21:50:13.523Z,20.50
2019-02-25T21:56:18.936Z,22.73
2019-02-25T22:02:23.775Z,21.23
2019-02-25T22:08:29.181Z,20.95
2019-02-25T22:14:34.432Z,21.00
2019-02-25T22:20:40.335Z,22.98
2019-02-25T22:26:44.914Z,23.45
2019-02-25T22:32:49.327Z,19.30
2019-02-25T22:38:56.593Z,20.52
2019-02-25T22:44:59.725Z,21.02
2019-02-25T22:51:05.284Z,20.88
2019-02-25T22:57:10.053Z,20.25
2019-02-25T23:03:16.051Z,20.75
2019-02-25T23:09:21.242Z,21.87
2019-02-25T23:15:28.129Z,22.07
2019-02-25T23:21:33.916Z,20.15
2019-02-25T23:27:38.987Z,20.35
2019-02-25T23:33:44.385Z,19.00
2019-02-25T23:39:49.489Z,19.23
2019-02-25T23:45:53.815Z,18.90
2019-02-25T23:51:58.209Z,19.30
2019-02-25T23:58:02.845Z,24.18
